Data for 12/26/2013

Time Sea-Level Adjusted Pressure Absolute Pressure Temperature Relative Humidity Dew Point   
(mb) (inHg) (mb) (inHg) (C) (F) (%) (C) (F)
00:05 1025 30.27 854 25.22 0.9 33.6 45 -9.7 14.6
00:10 1025 30.27 854 25.22 1 33.8 45 -9.5 14.9
00:15 1024 30.24 854 25.22 1.2 34.1 43 -10 14
00:20 1024 30.24 854 25.22 1.3 34.3 44 -9.7 14.6
00:25 1024 30.24 854 25.22 1.3 34.4 43 -10 14
00:30 1025 30.27 854 25.22 1.4 34.6 44 -9.5 14.9
00:35 1025 30.27 854 25.22 1.3 34.3 46 -9.1 15.6
00:40 1025 30.27 854 25.22 1 33.8 47 -9.2 15.4
00:45 1025 30.27 854 25.22 0.8 33.4 46 -9.5 15
00:50 1025 30.27 854 25.22 0.9 33.7 42 -10.6 12.8
00:55 1025 30.27 855 25.25 1.5 34.7 42 -10.1 13.8
01:00 1025 30.27 855 25.25 1.9 35.4 39 -10.8 12.5
01:05 1025 30.27 854 25.22 2.3 36.2 36 -11.2 11.9
01:10 1025 30.27 854 25.22 2.6 36.6 35 -11.2 11.8
01:15 1025 30.27 854 25.22 2.8 37 34 -11.5 11.2
01:20 1025 30.27 854 25.22 2.9 37.2 36 -10.8 12.6
01:25 1025 30.27 854 25.22 2.8 37 37 -10.7 12.7
01:30 1025 30.27 854 25.22 2.6 36.6 38 -10.4 13.3
01:35 1025 30.27 854 25.22 2.4 36.3 39 -10.1 13.9
01:40 1025 30.27 854 25.22 2.3 36.1 40 -10.1 13.8
01:45 1025 30.27 854 25.22 2.3 36.2 36 -11.3 11.7
01:50 1025 30.27 854 25.22 2.7 36.9 36 -10.8 12.6
01:55 1025 30.27 854 25.22 2.8 37.1 37 -10.3 13.4
02:00 1025 30.27 854 25.22 2.6 36.6 38 -10.4 13.2
02:05 1025 30.27 854 25.22 2.4 36.4 40 -9.9 14.2
02:10 1025 30.27 854 25.22 2.2 36 41 -9.7 14.5
02:15 1025 30.27 854 25.22 1.9 35.4 46 -8.7 16.4
02:20 1025 30.27 854 25.22 1.5 34.6 46 -8.8 16.1
02:25 1025 30.27 854 25.22 1.4 34.4 44 -9.5 14.9
02:30 1025 30.27 854 25.22 1.5 34.7 45 -9.2 15.5
02:35 1025 30.27 854 25.22 1.5 34.7 46 -8.9 15.9
02:40 1025 30.27 854 25.22 1.3 34.4 50 -8 17.6
02:45 1025 30.27 854 25.22 1 33.8 49 -8.6 16.5
02:50 1025 30.27 854 25.22 1.1 34.1 47 -9.1 15.6
02:55 1025 30.27 854 25.22 1.5 34.7 45 -9.1 15.6
03:00 1025 30.27 854 25.22 1.7 35.1 45 -9.1 15.6
03:05 1025 30.27 854 25.22 1.7 35.1 48 -8.2 17.2
03:10 1025 30.27 854 25.22 1.5 34.8 49 -8.2 17.3
03:15 1025 30.27 854 25.22 1.2 34.2 50 -8.2 17.3
03:20 1025 30.27 854 25.22 1 33.7 50 -8.3 17.1
03:25 1025 30.27 854 25.22 0.8 33.5 50 -8.3 17
03:30 1025 30.27 854 25.22 0.8 33.5 50 -8.3 17
03:35 1025 30.27 854 25.22 0.8 33.5 52 -7.8 17.9
03:40 1025 30.27 854 25.22 0.8 33.4 52 -7.9 17.8
03:45 1025 30.27 854 25.22 0.7 33.2 52 -8 17.6
03:50 1025 30.27 854 25.22 0.8 33.5 52 -8 17.7
03:55 1025 30.27 854 25.22 0.8 33.5 54 -7.6 18.4
04:00 1025 30.27 855 25.25 0.6 33.1 55 -7.5 18.5
04:05 1025 30.27 855 25.25 0.7 33.2 54 -7.5 18.5
04:10 1025 30.27 854 25.22 0.6 33.1 55 -7.5 18.6
04:15 1025 30.27 854 25.22 0.5 32.9 56 -7.3 18.8
04:20 1025 30.27 854 25.22 0.4 32.7 57 -7.1 19.3
04:25 1025 30.27 854 25.22 0.2 32.3 59 -6.9 19.5
04:30 1025 30.27 854 25.22 0.1 32.2 58 -7.1 19.2
04:35 1025 30.27 854 25.22 0.3 32.5 59 -6.9 19.6
04:40 1025 30.27 854 25.22 0.3 32.5 59 -6.9 19.7
04:45 1025 30.27 854 25.22 0.5 32.9 56 -7.2 19
04:50 1025 30.27 854 25.22 0.8 33.4 56 -7.1 19.2
04:55 1025 30.27 854 25.22 1 33.8 55 -7 19.5
05:00 1025 30.27 854 25.22 0.9 33.7 54 -7.2 19
05:05 1025 30.27 854 25.22 1.1 33.9 54 -7.2 19.1
05:10 1025 30.27 854 25.22 1.1 34 52 -7.6 18.3
05:15 1025 30.27 854 25.22 1.2 34.2 52 -7.5 18.5
05:20 1025 30.27 854 25.22 1.3 34.4 54 -7 19.5
05:25 1025 30.27 854 25.22 1.2 34.2 55 -6.9 19.6
05:30 1025 30.27 854 25.22 1.1 34 53 -7.4 18.7
05:35 1025 30.27 854 25.22 1.4 34.6 50 -7.8 17.9
05:40 1025 30.27 854 25.22 1.5 34.7 50 -7.9 17.7
05:45 1025 30.27 854 25.22 1.6 35 53 -7 19.4
05:50 1025 30.27 854 25.22 1.4 34.4 56 -6.6 20.1
05:55 1025 30.27 854 25.22 1.1 33.9 57 -6.6 20.2
06:00 1025 30.27 854 25.22 1.1 34 51 -7.8 17.9
06:05 1025 30.27 854 25.22 1.7 35 50 -7.6 18.2
06:10 1025 30.27 854 25.22 2 35.5 47 -8.3 17
06:15 1025 30.27 854 25.22 2.1 35.8 52 -6.8 19.7
06:20 1025 30.27 854 25.22 1.4 34.5 55 -6.6 20.1
06:25 1025 30.27 854 25.22 1 33.9 55 -7 19.5
06:30 1025 30.27 854 25.22 1.1 34.1 55 -6.9 19.6
06:35 1025 30.27 854 25.22 1 33.8 57 -6.6 20.2
06:40 1025 30.27 854 25.22 0.8 33.5 58 -6.6 20.1
06:45 1025 30.27 854 25.22 0.8 33.4 57 -6.8 19.8
06:50 1025 30.27 854 25.22 0.9 33.5 56 -6.9 19.5
06:55 1025 30.27 854 25.22 1.2 34.1 55 -6.8 19.8
07:00 1025 30.27 854 25.22 1.3 34.4 55 -6.7 19.9
07:05 1025 30.27 854 25.22 1.3 34.4 55 -6.7 19.9
07:10 1024 30.24 854 25.22 1.3 34.4 55 -6.7 19.9
07:15 1024 30.24 854 25.22 1.4 34.6 54 -6.9 19.6
07:20 1025 30.27 854 25.22 1.6 34.8 54 -6.8 19.7
07:25 1024 30.24 854 25.22 1.7 35.1 55 -6.3 20.7
07:30 1024 30.24 854 25.22 1.6 34.9 54 -6.6 20.1
07:35 1024 30.24 853 25.19 1.8 35.3 53 -6.7 20
07:40 1024 30.24 853 25.19 1.9 35.3 55 -6.3 20.7
07:45 1024 30.24 853 25.19 1.6 34.8 55 -6.4 20.4
07:50 1024 30.24 853 25.19 1.7 35 54 -6.5 20.2
07:55 1024 30.24 853 25.19 1.7 35.1 54 -6.6 20.1
08:00 1024 30.24 853 25.19 1.9 35.4 52 -7 19.5
08:05 1024 30.24 853 25.19 2 35.5 53 -6.7 20
08:10 1024 30.24 853 25.19 1.8 35.3 54 -6.5 20.3
08:15 1024 30.24 853 25.19 1.6 34.8 56 -6.2 20.8
08:20 1024 30.24 853 25.19 1 33.9 58 -6.4 20.4
08:25 1024 30.24 853 25.19 0.8 33.4 59 -6.3 20.7
08:30 1024 30.24 853 25.19 0.7 33.3 58 -6.5 20.2
08:35 1024 30.24 853 25.19 0.2 32.3 61 -6.5 20.4
08:40 1024 30.24 853 25.19 0 32 62 -6.4 20.4
08:45 1024 30.24 854 25.22 -0 31.9 64 -6.1 21.1
08:50 1024 30.24 854 25.22 0.1 32.2 61 -6.5 20.3
08:55 1024 30.24 854 25.22 0.1 32.1 62 -6.4 20.5
09:00 1024 30.24 854 25.22 -0.1 31.9 63 -6.3 20.7
09:05 1024 30.24 854 25.22 -0.3 31.5 64 -6.3 20.7
09:10 1024 30.24 854 25.22 -0.3 31.5 65 -6.1 21.1
09:15 1024 30.24 854 25.22 -0.2 31.7 63 -6.4 20.5
09:20 1024 30.24 854 25.22 -0.2 31.6 63 -6.5 20.2
09:25 1024 30.24 854 25.22 -0.2 31.6 64 -6.3 20.7
09:30 1024 30.24 854 25.22 -0.1 31.7 64 -6.1 21
09:35 1024 30.24 854 25.22 0.3 32.5 62 -6.2 20.8
09:40 1025 30.27 854 25.22 0.4 32.7 61 -6.3 20.6
09:45 1025 30.27 854 25.22 0.4 32.6 61 -6.2 20.8
09:50 1024 30.24 854 25.22 0.4 32.7 61 -6.4 20.6
09:55 1024 30.24 854 25.22 0.6 33.2 61 -6 21.2
10:00 1025 30.27 854 25.22 0.7 33.2 62 -5.9 21.5
10:05 1025 30.27 854 25.22 0.6 33.1 61 -5.9 21.3
10:10 1025 30.27 854 25.22 0.6 33.1 59 -6.5 20.2
10:15 1025 30.27 854 25.22 0.4 32.7 60 -6.5 20.3
10:20 1025 30.27 854 25.22 0.1 32.1 62 -6.4 20.5
10:25 1025 30.27 854 25.22 0 32 63 -6.2 20.8
10:30 1025 30.27 854 25.22 0.3 32.5 61 -6.3 20.6
10:35 1025 30.27 854 25.22 0.7 33.2 61 -6.1 21
10:40 1025 30.27 854 25.22 1.1 33.9 59 -6 21.2
10:45 1025 30.27 854 25.22 1.2 34.2 58 -6.2 20.8
10:50 1025 30.27 854 25.22 1.1 33.9 60 -5.9 21.3
10:55 1025 30.27 854 25.22 0.9 33.5 61 -5.9 21.4
11:00 1025 30.27 855 25.25 0.9 33.7 59 -6.1 20.9
11:05 1025 30.27 855 25.25 1.5 34.6 59 -5.8 21.6
11:10 1026 30.3 855 25.25 1.9 35.4 58 -5.5 22
11:15 1025 30.27 855 25.25 2.2 35.9 56 -5.6 21.9
11:20 1026 30.3 855 25.25 2.3 36.1 58 -5.1 22.8
11:25 1026 30.3 855 25.25 2 35.6 59 -5.2 22.6
11:30 1026 30.3 855 25.25 1.3 34.3 60 -5.6 21.9
11:35 1026 30.3 855 25.25 1.2 34.1 59 -5.9 21.4
11:40 1026 30.3 855 25.25 1.4 34.4 59 -5.7 21.7
11:45 1026 30.3 855 25.25 1.7 35 57 -5.9 21.4
11:50 1026 30.3 855 25.25 1.8 35.2 55 -6.3 20.7
11:55 1026 30.3 855 25.25 2 35.5 56 -5.9 21.4
12:00 1026 30.3 855 25.25 2.3 36.1 55 -5.8 21.6
12:05 1026 30.3 855 25.25 2.6 36.7 54 -5.8 21.6
12:10 1025 30.27 855 25.25 2.7 36.8 54 -5.7 21.7
12:15 1025 30.27 855 25.25 2.5 36.4 56 -5.5 22.1
12:20 1025 30.27 854 25.22 2.7 36.8 53 -5.8 21.5
12:25 1025 30.27 854 25.22 3 37.4 53 -5.6 22
12:30 1025 30.27 854 25.22 3.2 37.8 53 -5.4 22.2
12:35 1025 30.27 854 25.22 3.2 37.7 52 -5.7 21.7
12:40 1025 30.27 854 25.22 3 37.3 53 -5.7 21.8
12:45 1025 30.27 854 25.22 3 37.4 53 -5.6 21.9
12:50 1025 30.27 854 25.22 3.3 37.9 53 -5.4 22.2
12:55 1025 30.27 854 25.22 3.7 38.6 52 -5.4 22.3
13:00 1025 30.27 854 25.22 4 39.1 51 -5.3 22.4
13:05 1025 30.27 854 25.22 4.2 39.5 50 -5.3 22.4
13:10 1025 30.27 854 25.22 4.4 39.9 51 -5 23
13:15 1025 30.27 854 25.22 4.6 40.3 50 -5 23
13:20 1024 30.24 854 25.22 4.2 39.5 51 -5.1 22.8
13:25 1024 30.24 854 25.22 3.7 38.7 53 -5 23.1
13:30 1024 30.24 853 25.19 3.6 38.4 54 -5 23
13:35 1024 30.24 853 25.19 3.6 38.5 53 -5.2 22.7
13:40 1024 30.24 853 25.19 4.8 40.6 47 -5.5 22.1
13:45 1024 30.24 853 25.19 5.6 42.1 46 -5.1 22.8
13:50 1024 30.24 853 25.19 6.2 43.1 44 -5.2 22.6
13:55 1024 30.24 853 25.19 6.3 43.4 43 -5.3 22.5
14:00 1024 30.24 853 25.19 6.1 43 43 -5.4 22.3
14:05 1024 30.24 853 25.19 6.6 43.9 41 -5.8 21.6
14:10 1024 30.24 853 25.19 6.1 43 45 -5 23
14:15 1024 30.24 853 25.19 6.3 43.3 42 -5.6 22
14:20 1024 30.24 853 25.19 6.3 43.4 44 -4.9 23.2
14:25 1024 30.24 853 25.19 6 42.7 46 -4.8 23.4
14:30 1024 30.24 853 25.19 5.4 41.8 48 -4.6 23.7
14:35 1024 30.24 853 25.19 4.7 40.5 54 -3.8 25.2
14:40 1024 30.24 853 25.19 4.5 40 52 -4.6 23.7
14:45 1024 30.24 853 25.19 4.2 39.6 51 -5.1 22.9
14:50 1023 30.21 853 25.19 5.2 41.3 48 -5 22.9
14:55 1023 30.21 853 25.19 6.3 43.3 44 -4.9 23.1
15:00 1023 30.21 853 25.19 6.4 43.5 45 -4.7 23.6
15:05 1023 30.21 853 25.19 6.9 44.4 41 -5.5 22
15:10 1023 30.21 852 25.16 7.2 44.9 41 -5.1 22.9
15:15 1023 30.21 852 25.16 7.1 44.8 41 -5.1 22.8
15:20 1023 30.21 852 25.16 7.7 45.8 40 -4.9 23.1
15:25 1023 30.21 852 25.16 7.4 45.4 42 -4.6 23.7
15:30 1023 30.21 852 25.16 6.8 44.2 46 -4 24.8
15:35 1023 30.21 852 25.16 6.6 43.8 44 -4.8 23.4
15:40 1023 30.21 852 25.16 7.7 45.9 40 -5.1 22.8
15:45 1023 30.21 852 25.16 7.5 45.5 44 -3.8 25.1
15:50 1023 30.21 852 25.16 6.5 43.6 45 -4.7 23.5
15:55 1023 30.21 852 25.16 6.5 43.7 43 -5 22.9
16:00 1023 30.21 852 25.16 6.8 44.2 42 -5.2 22.7
16:05 1023 30.21 852 25.16 6.1 43 45 -5 22.9
16:10 1023 30.21 852 25.16 6.5 43.7 42 -5.5 22.1
16:15 1023 30.21 852 25.16 7.1 44.9 41 -5.1 22.8
16:20 1023 30.21 852 25.16 7.3 45.1 41 -5.2 22.6
16:25 1023 30.21 852 25.16 7.5 45.5 41 -4.8 23.3
16:30 1023 30.21 852 25.16 7.5 45.4 41 -5.1 22.8
16:35 1023 30.21 852 25.16 7.6 45.7 41 -4.8 23.3
16:40 1023 30.21 852 25.16 7.4 45.3 42 -4.7 23.6
16:45 1023 30.21 852 25.16 7.1 44.7 44 -4.4 24
16:50 1023 30.21 852 25.16 6.6 43.9 45 -4.5 23.9
16:55 1023 30.21 852 25.16 6.1 43 46 -4.5 23.8
17:00 1023 30.21 852 25.16 5.6 42.1 49 -4.3 24.3
17:05 1023 30.21 852 25.16 4.7 40.5 52 -4.2 24.5
17:10 1023 30.21 852 25.16 4 39.2 54 -4.5 23.9
17:15 1023 30.21 852 25.16 3.7 38.7 54 -4.7 23.6
17:20 1023 30.21 852 25.16 3.6 38.5 54 -4.8 23.4
17:25 1023 30.21 852 25.16 3.8 38.9 55 -4.4 24.1
17:30 1023 30.21 852 25.16 3.4 38.2 55 -4.8 23.4
17:35 1023 30.21 852 25.16 3.3 38 55 -4.8 23.3
17:40 1023 30.21 852 25.16 3.5 38.3 55 -4.7 23.5
17:45 1023 30.21 852 25.16 3.3 37.9 55 -4.8 23.3
17:50 1023 30.21 852 25.16 3.5 38.3 54 -4.9 23.2
17:55 1023 30.21 852 25.16 3.6 38.4 55 -4.6 23.7
18:00 1023 30.21 852 25.16 3.8 38.8 54 -4.6 23.7
18:05 1023 30.21 852 25.16 3.5 38.4 57 -4.2 24.4
18:10 1023 30.21 852 25.16 3.1 37.6 59 -4.1 24.6
18:15 1023 30.21 852 25.16 3.2 37.8 60 -3.9 25
18:20 1023 30.21 852 25.16 3.4 38.1 56 -4.5 23.8
18:25 1023 30.21 852 25.16 3.8 38.8 56 -4.2 24.4
18:30 1023 30.21 852 25.16 3.9 39.1 53 -4.9 23.3
18:35 1023 30.21 852 25.16 4 39.2 54 -4.4 24.1
18:40 1023 30.21 852 25.16 3.8 38.9 54 -4.5 23.8
18:45 1023 30.21 852 25.16 3.9 39 55 -4.4 24.2
18:50 1023 30.21 852 25.16 3.8 38.9 57 -4 24.8
18:55 1023 30.21 853 25.19 3.3 37.9 60 -3.8 25.1
19:00 1023 30.21 853 25.19 2.7 36.9 63 -3.7 25.3
19:05 1023 30.21 852 25.16 2.8 37 58 -4.6 23.8
19:10 1023 30.21 852 25.16 3.4 38.1 54 -5 23
19:15 1023 30.21 852 25.16 3.8 38.8 55 -4.3 24.2
19:20 1023 30.21 852 25.16 3.7 38.6 56 -4.2 24.4
19:25 1023 30.21 852 25.16 3.5 38.3 59 -3.8 25.2
19:30 1023 30.21 852 25.16 3.6 38.4 56 -4.3 24.2
19:35 1023 30.21 852 25.16 3.5 38.2 57 -4.3 24.3
19:40 1023 30.21 853 25.19 3.6 38.4 57 -4.2 24.5
19:45 1023 30.21 853 25.19 3.7 38.7 56 -4.3 24.3
19:50 1023 30.21 853 25.19 3.9 39 55 -4.4 24
19:55 1023 30.21 853 25.19 4.1 39.4 56 -3.8 25.1
20:00 1023 30.21 853 25.19 4.1 39.3 54 -4.4 24
20:05 1023 30.21 852 25.16 4.2 39.6 52 -4.9 23.2
20:10 1023 30.21 853 25.19 4.4 39.9 51 -4.7 23.5
20:15 1024 30.24 853 25.19 4.5 40.1 51 -4.6 23.7
20:20 1023 30.21 853 25.19 4.5 40 58 -3.1 26.4
20:25 1023 30.21 853 25.19 3.8 38.9 61 -2.9 26.8
20:30 1024 30.24 853 25.19 3.3 37.9 61 -3.5 25.8
20:35 1024 30.24 853 25.19 3.1 37.5 62 -3.6 25.6
20:40 1023 30.21 853 25.19 3.1 37.7 61 -3.7 25.4
20:45 1023 30.21 853 25.19 3.4 38 59 -4 24.9
20:50 1023 30.21 853 25.19 3.2 37.8 61 -3.7 25.4
20:55 1023 30.21 853 25.19 3.1 37.6 60 -3.9 25
21:00 1023 30.21 853 25.19 3 37.3 62 -3.6 25.5
21:05 1024 30.24 853 25.19 3.1 37.7 62 -3.4 25.8
21:10 1024 30.24 853 25.19 3.7 38.7 55 -4.5 23.9
21:15 1024 30.24 853 25.19 4.1 39.4 53 -4.6 23.8
21:20 1024 30.24 853 25.19 4.3 39.7 52 -4.6 23.7
21:25 1024 30.24 853 25.19 4.4 39.8 50 -5.1 22.7
21:30 1024 30.24 853 25.19 4.4 39.9 51 -4.9 23.2
21:35 1024 30.24 853 25.19 4.1 39.4 56 -4 24.9
21:40 1024 30.24 853 25.19 2.9 37.3 61 -3.9 25
21:45 1024 30.24 853 25.19 2.8 37 57 -4.9 23.1
21:50 1024 30.24 853 25.19 3.3 38 59 -4 24.8
21:55 1023 30.21 853 25.19 3 37.4 58 -4.4 24.2
22:00 1023 30.21 853 25.19 3 37.4 58 -4.5 23.9
22:05 1023 30.21 853 25.19 2.8 37.1 57 -4.8 23.4
22:10 1023 30.21 853 25.19 2.6 36.8 58 -4.8 23.3
22:15 1023 30.21 853 25.19 2.6 36.6 58 -5 23.1
22:20 1023 30.21 853 25.19 2.9 37.1 55 -5.4 22.3
22:25 1023 30.21 852 25.16 3.2 37.8 55 -4.9 23.3
22:30 1023 30.21 852 25.16 3.5 38.2 53 -5.1 22.8
22:35 1023 30.21 852 25.16 3.6 38.5 53 -5.1 22.9
22:40 1023 30.21 852 25.16 3.7 38.6 53 -5 23
22:45 1023 30.21 852 25.16 3.7 38.6 51 -5.6 21.9
22:50 1023 30.21 852 25.16 3.8 38.8 50 -5.8 21.6
22:55 1023 30.21 852 25.16 3.9 39 49 -5.7 21.7
23:00 1023 30.21 853 25.19 4 39.2 49 -5.7 21.7
23:05 1023 30.21 852 25.16 4 39.3 49 -5.8 21.5
23:10 1023 30.21 852 25.16 4.2 39.6 48 -5.9 21.4
23:15 1023 30.21 853 25.19 4.3 39.7 47 -6 21.3
23:20 1023 30.21 852 25.16 4.5 40.2 45 -6.4 20.5
23:25 1023 30.21 852 25.16 4.9 40.9 44 -6.2 20.9
23:30 1023 30.21 852 25.16 4.9 40.9 44 -6.2 20.8
23:35 1023 30.21 852 25.16 5.1 41.3 43 -6.4 20.4
23:40 1023 30.21 852 25.16 5.3 41.6 43 -6.4 20.5
23:45 1023 30.21 852 25.16 5.1 41.2 46 -5.5 22.1
23:50 1023 30.21 853 25.19 3.7 38.6 51 -5.6 21.9
23:55 1023 30.21 853 25.19 3.2 37.7 51 -6 21.2
24:00 1023 30.21 853 25.19 3.1 37.6 53 -5.6 21.9